createdAt,value
2019-05-16T00:02:13.279Z,71.28
2019-05-16T00:07:19.225Z,71.64
2019-05-16T00:12:20.799Z,71.55
2019-05-16T00:17:22.885Z,71.86
2019-05-16T00:22:24.898Z,71.44
2019-05-16T00:27:28.094Z,71.59
2019-05-16T00:32:30.205Z,71.90
2019-05-16T00:37:32.133Z,71.78
2019-05-16T00:48:03.197Z,75.75
2019-05-16T00:53:05.238Z,72.10
2019-05-16T00:58:08.791Z,71.93
2019-05-16T01:03:12.581Z,72.00
2019-05-16T01:08:14.644Z,72.39
2019-05-16T01:13:18.548Z,72.65
2019-05-16T01:18:20.805Z,73.09
2019-05-16T01:23:22.835Z,72.82
2019-05-16T01:28:24.876Z,72.74
2019-05-16T01:33:28.090Z,73.26
2019-05-16T01:38:30.384Z,73.33
2019-05-16T01:43:32.516Z,74.11
2019-05-16T01:48:34.704Z,73.85
2019-05-16T01:53:39.483Z,74.41
2019-05-16T01:58:43.538Z,74.07
2019-05-16T02:03:47.961Z,74.32
2019-05-16T02:08:49.726Z,74.12
2019-05-16T02:13:51.676Z,74.16
2019-05-16T02:18:53.692Z,73.62
2019-05-16T02:23:58.407Z,73.87
2019-05-16T02:29:00.901Z,73.82
2019-05-16T02:34:05.073Z,74.10
2019-05-16T02:39:10.892Z,74.13
2019-05-16T02:44:12.121Z,73.90
2019-05-16T02:49:14.229Z,73.68
2019-05-16T02:54:16.177Z,74.17
2019-05-16T02:59:20.649Z,74.96
2019-05-16T03:04:23.137Z,74.97
2019-05-16T03:09:25.463Z,75.35
2019-05-16T03:14:31.521Z,76.06
2019-05-16T03:19:35.805Z,76.30
2019-05-16T03:24:37.736Z,76.84
2019-05-16T03:29:41.742Z,77.06
2019-05-16T03:34:44.665Z,77.33
2019-05-16T03:39:46.741Z,77.65
2019-05-16T03:44:51.271Z,77.74
2019-05-16T03:49:52.636Z,78.04
2019-05-16T03:54:54.563Z,78.40
2019-05-16T04:00:00.573Z,79.14
2019-05-16T04:05:02.927Z,79.47
2019-05-16T04:10:05.700Z,79.12
2019-05-16T04:15:11.259Z,79.11
2019-05-16T04:20:13.226Z,78.82
2019-05-16T04:25:15.254Z,79.41
2019-05-16T04:30:17.854Z,79.77
2019-05-16T04:35:21.452Z,79.99
2019-05-16T04:40:24.979Z,80.01
2019-05-16T04:45:27.405Z,79.93
2019-05-16T04:50:31.126Z,80.12
2019-05-16T04:55:33.351Z,80.72
2019-05-16T05:00:35.601Z,81.36
2019-05-16T05:05:37.606Z,81.76
2019-05-16T05:10:42.647Z,82.26
2019-05-16T05:15:44.701Z,82.51
2019-05-16T05:20:47.451Z,82.72
2019-05-16T05:25:51.256Z,82.82
2019-05-16T05:30:53.313Z,83.12
2019-05-16T05:35:55.367Z,83.20
2019-05-16T05:40:57.325Z,83.33
2019-05-16T05:46:00.634Z,83.29
2019-05-16T05:51:03.093Z,83.44
2019-05-16T05:56:05.334Z,83.40
2019-05-16T06:01:07.463Z,83.52
2019-05-16T06:06:10.488Z,83.65
2019-05-16T06:11:12.879Z,83.20
2019-05-16T06:16:14.819Z,83.62
2019-05-16T06:21:20.105Z,83.61
2019-05-16T06:26:21.268Z,83.47
2019-05-16T06:31:23.301Z,83.88
2019-05-16T06:36:25.216Z,83.83
2019-05-16T06:41:27.293Z,84.18
2019-05-16T06:46:30.718Z,84.23
2019-05-16T06:51:32.832Z,84.65
2019-05-16T06:56:34.759Z,84.18
2019-05-16T07:01:36.755Z,84.37
2019-05-16T07:06:54.778Z,84.64
2019-05-16T07:11:43.220Z,84.91
2019-05-16T07:16:45.415Z,85.02
2019-05-16T07:21:47.461Z,85.02
2019-05-16T07:26:50.910Z,84.92
2019-05-16T07:31:52.861Z,84.46
2019-05-16T07:36:54.931Z,84.88
2019-05-16T07:41:57.083Z,84.99
2019-05-16T07:47:00.948Z,84.92
2019-05-16T07:52:03.925Z,85.12
2019-05-16T07:57:16.174Z,85.49
2019-05-16T08:02:10.992Z,85.10
2019-05-16T08:07:13.577Z,84.95
2019-05-16T08:12:15.720Z,85.62
2019-05-16T08:17:21.439Z,85.19
2019-05-16T08:22:22.670Z,85.25
2019-05-16T08:27:24.909Z,85.35
2019-05-16T08:32:27.096Z,85.65
2019-05-16T08:37:38.425Z,85.41
2019-05-16T08:42:33.068Z,85.65
2019-05-16T08:47:35.254Z,85.93
2019-05-16T08:52:37.432Z,85.87
2019-05-16T08:57:40.931Z,85.61
2019-05-16T09:02:43.335Z,85.06
2019-05-16T09:07:45.292Z,85.43
2019-05-16T09:12:47.846Z,85.82
2019-05-16T09:17:50.393Z,85.76
2019-05-16T09:22:52.355Z,86.15
2019-05-16T09:27:56.957Z,85.93
2019-05-16T09:32:58.890Z,86.09
2019-05-16T09:38:00.998Z,86.09
2019-05-16T09:43:03.072Z,85.87
2019-05-16T09:48:07.999Z,86.27
2019-05-16T09:53:09.216Z,86.01
2019-05-16T09:58:11.347Z,86.07
2019-05-16T10:03:13.435Z,85.68
2019-05-16T10:08:17.277Z,85.92
2019-05-16T10:13:19.529Z,86.51
2019-05-16T10:18:22.692Z,85.33
2019-05-16T10:23:24.666Z,85.93
2019-05-16T10:28:27.632Z,85.31
2019-05-16T10:33:29.989Z,85.81
2019-05-16T10:38:32.019Z,85.20
2019-05-16T10:43:34.089Z,85.40
2019-05-16T10:48:37.575Z,85.39
2019-05-16T10:54:04.573Z,85.83
2019-05-16T10:59:04.927Z,85.90
2019-05-16T11:03:49.263Z,85.64
2019-05-16T11:08:51.340Z,85.29
2019-05-16T11:13:53.271Z,84.93
2019-05-16T11:18:55.250Z,85.24
2019-05-16T11:23:57.693Z,85.04
2019-05-16T11:28:59.641Z,85.25
2019-05-16T11:34:01.611Z,85.27
2019-05-16T11:39:08.209Z,85.54
2019-05-16T11:44:09.419Z,85.78
2019-05-16T11:49:11.441Z,86.08
2019-05-16T11:54:13.428Z,85.94
2019-05-16T11:59:16.010Z,85.59
2019-05-16T12:04:18.003Z,86.38
2019-05-16T12:09:20.047Z,86.28
2019-05-16T12:14:22.027Z,86.55
2019-05-16T12:19:33.478Z,86.47
2019-05-16T12:24:36.468Z,86.25
2019-05-16T12:29:32.022Z,86.59
2019-05-16T12:34:34.070Z,86.21
2019-05-16T12:39:37.944Z,85.82
2019-05-16T12:44:40.212Z,86.19
2019-05-16T12:49:42.180Z,85.94
2019-05-16T12:54:44.245Z,85.89
2019-05-16T12:59:51.929Z,85.04
2019-05-16T13:04:50.336Z,85.75
2019-05-16T13:09:52.428Z,85.85
2019-05-16T13:14:54.527Z,85.46
2019-05-16T13:19:57.609Z,85.57
2019-05-16T13:25:00.247Z,85.44
2019-05-16T13:30:02.609Z,85.41
2019-05-16T13:35:07.433Z,85.47
2019-05-16T13:40:09.120Z,85.18
2019-05-16T13:45:11.314Z,85.96
2019-05-16T13:50:16.666Z,86.25
2019-05-16T13:55:18.959Z,85.78
2019-05-16T14:00:21.318Z,85.60
2019-05-16T14:05:23.352Z,86.30
2019-05-16T14:10:29.278Z,85.20
2019-05-16T14:15:29.385Z,86.00
2019-05-16T14:20:31.447Z,86.24
2019-05-16T14:25:33.625Z,85.76
2019-05-16T14:30:37.274Z,86.27
2019-05-16T14:35:39.523Z,86.05
2019-05-16T14:40:42.182Z,85.81
2019-05-16T14:45:46.504Z,85.75
2019-05-16T14:50:48.249Z,85.45
2019-05-16T14:55:50.225Z,85.96
2019-05-16T15:00:52.317Z,85.47
2019-05-16T15:05:58.245Z,86.06
2019-05-16T15:10:58.253Z,86.13
2019-05-16T15:16:00.293Z,86.21
2019-05-16T15:21:02.481Z,86.09
2019-05-16T15:26:08.997Z,85.92
2019-05-16T15:31:08.791Z,86.01
2019-05-16T15:36:10.897Z,86.26
2019-05-16T15:41:12.952Z,86.40
2019-05-16T15:46:17.198Z,86.40
2019-05-16T15:51:21.414Z,86.02
2019-05-16T15:56:26.929Z,85.17
2019-05-16T16:01:28.506Z,85.56
2019-05-16T16:06:30.618Z,85.32
2019-05-16T16:11:32.692Z,85.27
2019-05-16T16:16:34.657Z,85.26
2019-05-16T16:21:38.024Z,85.72
2019-05-16T16:26:40.316Z,85.58
2019-05-16T16:31:42.303Z,85.27
2019-05-16T16:36:44.401Z,85.07
2019-05-16T16:41:47.775Z,85.06
2019-05-16T16:46:50.102Z,85.00
2019-05-16T16:51:52.264Z,84.80
2019-05-16T16:56:54.276Z,84.60
2019-05-16T17:01:57.215Z,84.31
2019-05-16T17:06:59.265Z,84.57
2019-05-16T17:12:02.474Z,84.37
2019-05-16T17:17:06.858Z,84.04
2019-05-16T17:22:17.218Z,84.38
2019-05-16T17:27:13.451Z,84.15
2019-05-16T17:32:16.802Z,83.99
2019-05-16T17:37:18.997Z,84.47
2019-05-16T17:42:21.188Z,84.69
2019-05-16T17:47:26.184Z,84.71
2019-05-16T17:52:28.007Z,84.75
2019-05-16T17:57:30.185Z,84.49
2019-05-16T18:02:32.326Z,84.59
2019-05-16T18:07:36.398Z,84.59
2019-05-16T18:12:39.396Z,84.73
2019-05-16T18:17:41.403Z,84.67
2019-05-16T18:22:47.208Z,84.77
2019-05-16T18:27:49.266Z,84.77
2019-05-16T18:32:51.306Z,85.04
2019-05-16T18:37:53.311Z,85.36
2019-05-16T18:42:57.068Z,85.36
2019-05-16T18:47:59.149Z,85.23
2019-05-16T18:53:01.145Z,85.18
2019-05-16T18:58:08.325Z,85.40
2019-05-16T19:03:10.401Z,85.18
2019-05-16T19:08:12.482Z,85.18
2019-05-16T19:13:16.720Z,85.19
2019-05-16T19:18:18.850Z,85.17
2019-05-16T19:23:20.926Z,85.00
2019-05-16T19:28:22.919Z,84.89
2019-05-16T19:33:24.982Z,84.96
2019-05-16T19:38:29.292Z,85.03
2019-05-16T19:43:31.113Z,85.19
2019-05-16T19:48:33.108Z,85.19
2019-05-16T19:53:36.443Z,85.36
2019-05-16T19:58:38.705Z,85.19
2019-05-16T20:03:40.914Z,85.25
2019-05-16T20:08:42.934Z,85.37
2019-05-16T20:13:47.256Z,85.03
2019-05-16T20:18:49.002Z,84.94
2019-05-16T20:23:51.519Z,85.29
2019-05-16T20:28:56.822Z,84.97
2019-05-16T20:33:58.434Z,85.18
2019-05-16T20:39:00.523Z,84.88
2019-05-16T20:44:02.771Z,85.14
2019-05-16T20:49:07.550Z,84.98
2019-05-16T20:54:08.862Z,85.08
2019-05-16T20:59:11.085Z,84.89
2019-05-16T21:04:13.229Z,84.78
2019-05-16T21:09:16.945Z,84.83
2019-05-16T21:14:19.498Z,84.81
2019-05-16T21:19:21.807Z,84.83
2019-05-16T21:24:24.009Z,84.61
2019-05-16T21:29:27.721Z,84.52
2019-05-16T21:34:29.883Z,84.87
2019-05-16T21:39:31.982Z,84.75
2019-05-16T21:44:37.251Z,84.74
2019-05-16T21:49:41.033Z,84.66
2019-05-16T21:54:43.240Z,84.61
2019-05-16T21:59:47.632Z,84.38
2019-05-16T22:04:51.226Z,84.41
2019-05-16T22:09:53.410Z,84.25
2019-05-16T22:14:57.475Z,84.30
2019-05-16T22:19:59.585Z,84.27
2019-05-16T22:25:01.858Z,84.19
2019-05-16T22:30:08.090Z,84.21
2019-05-16T22:35:10.578Z,84.46
2019-05-16T22:40:17.045Z,84.44
2019-05-16T22:45:20.169Z,84.55
2019-05-16T22:50:22.318Z,84.52
2019-05-16T22:55:26.483Z,84.34
2019-05-16T23:00:30.441Z,83.97
2019-05-16T23:05:32.647Z,84.02
2019-05-16T23:10:36.777Z,84.13
2019-05-16T23:15:40.692Z,84.05
2019-05-16T23:20:42.661Z,84.03
2019-05-16T23:25:46.169Z,84.11
2019-05-16T23:30:48.486Z,84.01
2019-05-16T23:35:50.467Z,84.19
2019-05-16T23:40:52.442Z,84.21
2019-05-16T23:45:56.390Z,84.40
2019-05-16T23:50:58.452Z,84.39
2019-05-16T23:56:00.412Z,84.58
